Time;durP1;ratioP1;P1;durP2;ratioP2;P2;SDS_P1;SDS_P2;PMS_P1;PMS_P2;Temp;Humidity;BMP_temperature;BMP_pressure;BME280_temperature;BME280_humidity;BME280_pressure;Samples;Min_cycle;Max_cycle;Signal;HPM_P1;HPM_P2
2022/11/01 00:01:42;;;;;;;6.47;5.88;;;;;;;12.04;100.00;98460.91;4155809;28;20278;-46
2022/11/01 00:03:44;;;;;;;10.25;5.80;;;;;;;12.02;100.00;98457.59;4157352;28;20577;-45
2022/11/01 00:05:46;;;;;;;6.22;5.65;;;;;;;12.02;100.00;98452.13;4170518;28;20657;-45
2022/11/01 00:07:47;;;;;;;6.65;6.05;;;;;;;11.98;100.00;98445.50;4148671;28;20219;-45
2022/11/01 00:09:49;;;;;;;6.50;6.00;;;;;;;12.17;100.00;98449.50;4156554;28;20215;-46
2022/11/01 00:11:51;;;;;;;7.93;7.13;;;;;;;12.06;100.00;98442.28;4154641;28;20221;-45
2022/11/01 00:13:53;;;;;;;8.43;7.47;;;;;;;12.04;100.00;98449.94;4150966;28;20243;-46
2022/11/01 00:15:54;;;;;;;8.35;7.00;;;;;;;12.05;100.00;98443.34;4154422;28;20232;-46
2022/11/01 00:17:56;;;;;;;9.35;7.50;;;;;;;12.10;100.00;98443.41;4167083;28;20298;-45
2022/11/01 00:19:58;;;;;;;8.63;7.85;;;;;;;12.08;100.00;98439.28;4153318;28;20200;-46
2022/11/01 00:21:59;;;;;;;7.53;6.75;;;;;;;12.02;100.00;98430.19;4156452;28;20216;-45
2022/11/01 00:24:01;;;;;;;8.40;7.35;;;;;;;12.08;100.00;98437.38;4156680;28;20293;-46
2022/11/01 00:26:03;;;;;;;7.50;6.88;;;;;;;12.03;100.00;98437.31;4155518;28;20565;-45
2022/11/01 00:28:04;;;;;;;7.25;6.55;;;;;;;12.01;100.00;98428.53;4168642;28;20263;-45
2022/11/01 00:30:06;;;;;;;8.73;7.13;;;;;;;12.00;100.00;98437.84;4155122;28;20268;-46
2022/11/01 00:32:08;;;;;;;7.15;6.45;;;;;;;12.12;100.00;98424.75;4149965;28;20645;-45
2022/11/01 00:34:10;;;;;;;7.57;6.85;;;;;;;12.05;100.00;98434.31;4151930;28;20287;-45
2022/11/01 00:36:12;;;;;;;10.00;7.32;;;;;;;12.06;100.00;98431.31;4154441;28;20655;-45
2022/11/01 00:38:15;;;;;;;6.72;6.03;;;;;;;12.04;100.00;98433.47;4171599;28;20204;-45
2022/11/01 00:40:17;;;;;;;7.32;6.63;;;;;;;12.03;100.00;98431.03;4156706;28;20216;-46
2022/11/01 00:42:18;;;;;;;7.00;6.40;;;;;;;12.06;100.00;98425.84;4170056;28;20314;-45
2022/11/01 00:44:20;;;;;;;7.65;6.95;;;;;;;12.11;100.00;98434.09;4155279;28;20211;-46
2022/11/01 00:46:22;;;;;;;5.68;5.25;;;;;;;12.04;100.00;98422.50;4156425;28;20637;-45
2022/11/01 00:48:24;;;;;;;6.35;5.75;;;;;;;12.00;100.00;98413.16;4157025;28;20208;-46
2022/11/01 00:50:26;;;;;;;6.55;5.95;;;;;;;12.00;100.00;98407.69;4167248;28;20207;-46
2022/11/01 00:52:27;;;;;;;5.75;5.25;;;;;;;12.00;100.00;98407.69;4149890;28;20232;-46
2022/11/01 00:54:29;;;;;;;6.78;5.57;;;;;;;12.01;100.00;98412.06;4150750;28;20209;-45
2022/11/01 00:56:31;;;;;;;7.70;6.10;;;;;;;12.10;100.00;98421.47;4150692;28;20229;-46
2022/11/01 00:58:34;;;;;;;5.82;5.38;;;;;;;12.04;100.00;98428.00;4150633;28;20211;-45
2022/11/01 01:00:36;;;;;;;6.00;5.43;;;;;;;12.03;100.00;98420.84;4157228;28;20569;-45
2022/11/01 01:02:38;;;;;;;7.07;5.47;;;;;;;11.99;100.00;98419.75;4157840;28;20730;-46
2022/11/01 01:04:42;;;;;;;6.50;5.82;;;;;;;12.02;100.00;98419.22;4151674;28;20198;-46
2022/11/01 01:06:43;;;;;;;5.85;5.25;;;;;;;12.04;100.00;98422.50;4167757;28;20300;-45
2022/11/01 01:08:45;;;;;;;7.57;6.78;;;;;;;12.02;100.00;98424.69;4157638;28;20878;-46
2022/11/01 01:10:50;;;;;;;5.35;4.95;;;;;;;12.06;100.00;98431.31;4156661;28;20328;-45
2022/11/01 01:12:51;;;;;;;13.13;5.88;;;;;;;12.02;100.00;98424.69;4153194;28;20222;-46
2022/11/01 01:14:53;;;;;;;6.85;6.10;;;;;;;12.13;100.00;98426.44;4171628;28;20208;-45
2022/11/01 01:16:55;;;;;;;6.38;5.88;;;;;;;12.10;100.00;98426.94;4168629;28;20353;-45
2022/11/01 01:18:57;;;;;;;5.93;4.90;;;;;;;12.08;100.00;98418.16;4156426;28;20215;-46
2022/11/01 01:21:00;;;;;;;11.88;5.90;;;;;;;12.07;100.00;98419.25;4154131;28;20292;-45
2022/11/01 01:23:02;;;;;;;6.85;6.28;;;;;;;12.10;100.00;98415.97;4133875;28;20299;-45
2022/11/01 01:25:04;;;;;;;5.70;5.20;;;;;;;12.10;100.00;98426.94;4146371;28;20708;-45
2022/11/01 01:27:05;;;;;;;8.15;6.32;;;;;;;12.10;100.00;98421.47;4146855;28;20205;-45
2022/11/01 01:29:07;;;;;;;7.35;6.38;;;;;;;12.16;100.00;98412.19;4152646;28;20200;-46
2022/11/01 01:31:09;;;;;;;7.80;6.18;;;;;;;12.14;100.00;98406.16;4148958;28;20232;-45
2022/11/01 01:33:11;;;;;;;6.95;6.28;;;;;;;12.09;100.00;98408.84;4155273;28;20220;-45
2022/11/01 01:35:12;;;;;;;6.25;5.65;;;;;;;12.04;100.00;98414.28;4154112;28;20201;-45
2022/11/01 01:37:14;;;;;;;5.85;5.28;;;;;;;12.04;100.00;98419.75;4151014;28;20229;-46
2022/11/01 01:39:16;;;;;;;5.95;5.45;;;;;;;12.04;100.00;98416.22;4156387;28;20213;-46
2022/11/01 01:43:41;;;;;;;5.35;4.85;;;;;;;12.10;100.00;98418.72;4154651;28;20697;-45
2022/11/01 01:45:43;;;;;;;6.85;5.78;;;;;;;12.08;100.00;98423.66;4169641;28;20208;-46
2022/11/01 01:47:48;;;;;;;5.50;4.97;;;;;;;12.15;100.00;98418.78;4151955;28;20202;-46
2022/11/01 01:49:55;;;;;;;6.30;5.70;;;;;;;12.11;100.00;98423.13;4153835;28;20568;-45
2022/11/01 01:51:57;;;;;;;6.32;5.72;;;;;;;12.15;100.00;98418.78;4168114;28;20310;-46
2022/11/01 01:53:59;;;;;;;6.38;5.88;;;;;;;12.15;100.00;98424.25;4156138;28;20599;-45
2022/11/01 01:56:06;;;;;;;7.50;6.05;;;;;;;12.16;100.00;98412.19;4155792;28;20537;-45
2022/11/01 01:58:09;;;;;;;5.53;4.40;;;;;;;12.18;100.00;98422.91;4167108;28;20208;-46
2022/11/01 02:00:12;;;;;;;5.80;5.30;;;;;;;12.20;100.00;98416.06;4167283;28;20211;-46
2022/11/01 02:02:14;;;;;;;6.22;5.63;;;;;;;12.21;100.00;98414.97;4152357;28;20419;-45
2022/11/01 02:04:23;;;;;;;6.20;5.55;;;;;;;12.19;100.00;98408.09;4168077;28;20212;-45
2022/11/01 02:06:25;;;;;;;5.40;4.90;;;;;;;12.19;100.00;98403.44;4153879;28;20201;-45
2022/11/01 02:08:27;;;;;;;5.15;4.70;;;;;;;12.18;100.00;98407.25;4153298;28;20299;-45
2022/11/01 02:10:29;;;;;;;6.65;5.30;;;;;;;12.20;100.00;98401.50;4138720;28;20224;-46
2022/11/01 02:12:35;;;;;;;5.45;5.05;;;;;;;12.28;100.00;98407.34;4153833;28;20703;-46
2022/11/01 02:14:39;;;;;;;5.03;4.53;;;;;;;12.22;100.00;98413.88;4163221;28;20200;-46
2022/11/01 02:16:53;;;;;;;4.50;4.15;;;;;;;12.21;100.00;98405.91;4154500;28;20227;-46
2022/11/01 02:19:32;;;;;;;8.30;5.45;;;;;;;12.26;100.00;98415.03;4170460;28;20319;-45
2022/11/01 02:21:45;;;;;;;5.35;4.85;;;;;;;12.22;100.00;98419.38;4147567;28;20236;-46
2022/11/01 02:24:13;;;;;;;6.85;5.72;;;;;;;12.32;100.00;98444.16;4153039;28;20201;-46
2022/11/01 02:26:49;;;;;;;5.32;4.68;;;;;;;12.31;100.00;98467.16;4152832;28;20316;-46
2022/11/01 02:29:03;;;;;;;4.47;4.07;;;;;;;12.52;100.00;98480.00;4156993;28;20208;-46
2022/11/01 02:31:25;;;;;;;5.43;5.00;;;;;;;12.85;100.00;98463.16;4152621;28;20667;-46
2022/11/01 02:33:29;;;;;;;3.90;3.60;;;;;;;13.10;100.00;98454.28;4155758;28;20201;-46
2022/11/01 02:35:42;;;;;;;3.80;3.20;;;;;;;13.36;100.00;98465.09;4168050;28;20299;-46
2022/11/01 02:37:53;;;;;;;3.03;2.83;;;;;;;13.52;100.00;98477.81;4148166;28;20263;-46
2022/11/01 02:39:59;;;;;;;3.53;3.22;;;;;;;13.59;100.00;98474.81;4150013;28;20287;-46
2022/11/01 02:42:14;;;;;;;7.18;3.55;;;;;;;13.68;100.00;98474.00;4167728;28;20235;-46
2022/11/01 02:44:19;;;;;;;4.43;2.55;;;;;;;13.76;100.00;98470.72;4155771;28;20209;-46
2022/11/01 02:48:42;;;;;;;3.63;2.55;;;;;;;13.76;100.00;98465.22;4154212;28;20205;-46
2022/11/01 02:50:46;;;;;;;6.40;3.30;;;;;;;13.79;100.00;98463.84;4151471;28;20201;-46
2022/11/01 02:52:48;;;;;;;5.60;3.83;;;;;;;13.73;100.00;98454.78;4150991;28;20632;-46
2022/11/01 02:55:02;;;;;;;3.92;3.60;;;;;;;13.75;100.00;98455.31;4141035;28;20241;-46
2022/11/01 02:57:15;;;;;;;6.22;4.00;;;;;;;13.73;100.00;98443.78;4141391;28;20213;-46
2022/11/01 02:59:23;;;;;;;3.47;3.20;;;;;;;13.74;100.00;98450.09;4156671;28;20209;-47
2022/11/01 03:01:26;;;;;;;4.90;4.00;;;;;;;13.72;100.00;98449.53;4153014;28;20314;-46
2022/11/01 03:03:31;;;;;;;4.85;3.30;;;;;;;13.67;100.00;98449.53;4151587;28;20211;-46
2022/11/01 03:05:58;;;;;;;3.85;3.45;;;;;;;13.72;100.00;98461.38;4151047;28;20296;-46
2022/11/01 03:08:04;;;;;;;5.13;3.42;;;;;;;13.73;100.00;98452.03;4153995;28;20300;-46
2022/11/01 03:10:06;;;;;;;4.05;2.72;;;;;;;13.73;100.00;98448.44;4140429;28;20219;-46
2022/11/01 03:12:24;;;;;;;4.70;2.78;;;;;;;13.70;100.00;98454.50;4153773;28;20231;-46
2022/11/01 03:14:55;;;;;;;2.70;2.50;;;;;;;13.68;100.00;98454.75;4136974;28;20236;-46
2022/11/01 03:17:34;;;;;;;5.30;3.30;;;;;;;13.66;100.00;98459.72;4154661;28;20323;-46
2022/11/01 03:19:49;;;;;;;2.90;2.60;;;;;;;13.71;100.00;98459.69;4151308;28;20265;-45
2022/11/01 03:22:11;;;;;;;2.95;2.75;;;;;;;13.71;100.00;98459.69;4154024;28;20242;-46
2022/11/01 03:24:21;;;;;;;3.63;3.33;;;;;;;13.78;100.00;98462.22;4105703;28;20201;-46
2022/11/01 03:26:25;;;;;;;4.65;3.42;;;;;;;13.73;100.00;98465.78;4150588;28;20209;-46
2022/11/01 03:28:35;;;;;;;4.03;3.63;;;;;;;13.77;100.00;98466.88;4154092;28;20291;-46
2022/11/01 03:30:41;;;;;;;7.10;3.15;;;;;;;13.78;100.00;98457.50;4149309;28;20219;-46
2022/11/01 03:32:48;;;;;;;5.50;4.22;;;;;;;13.79;100.00;98459.19;4159666;28;20335;-45
2022/11/01 03:34:49;;;;;;;3.72;3.40;;;;;;;13.84;100.00;98458.38;4159886;28;20210;-46
2022/11/01 03:36:54;;;;;;;3.67;3.38;;;;;;;13.84;100.00;98467.44;4171777;28;20670;-45
2022/11/01 03:39:01;;;;;;;5.60;3.88;;;;;;;13.83;100.00;98471.28;4156832;28;20227;-46
2022/11/01 03:41:06;;;;;;;4.03;3.38;;;;;;;13.82;100.00;98463.28;4171400;28;20218;-46
2022/11/01 03:43:11;;;;;;;4.47;2.85;;;;;;;13.84;100.00;98474.88;4170746;28;20273;-46
2022/11/01 03:45:13;;;;;;;6.18;3.17;;;;;;;13.83;100.00;98481.47;4172838;28;20682;-45
2022/11/01 03:47:17;;;;;;;3.53;3.22;;;;;;;13.86;100.00;98476.25;4144352;28;20686;-46
2022/11/01 03:49:19;;;;;;;5.68;3.00;;;;;;;13.85;100.00;98480.13;4170130;28;20216;-46
2022/11/01 03:51:21;;;;;;;3.67;3.33;;;;;;;13.88;100.00;98485.06;4154326;28;20224;-46
2022/11/01 03:53:24;;;;;;;3.38;3.08;;;;;;;13.86;100.00;98489.19;4156256;28;20243;-45
2022/11/01 03:55:25;;;;;;;9.48;2.50;;;;;;;13.91;100.00;98492.75;4154373;28;20208;-46
2022/11/01 03:57:27;;;;;;;4.97;3.13;;;;;;;13.92;100.00;98486.19;4160313;28;20267;-46
2022/11/01 03:59:29;;;;;;;3.30;2.70;;;;;;;13.96;100.00;98492.78;4153910;28;20291;-46
2022/11/01 04:01:30;;;;;;;3.03;2.72;;;;;;;13.96;100.00;98481.75;4151182;28;20312;-46
2022/11/01 04:03:32;;;;;;;4.28;3.13;;;;;;;14.02;100.00;98486.19;4153522;28;20205;-45
2022/11/01 04:05:35;;;;;;;6.47;2.10;;;;;;;13.99;100.00;98472.16;4157864;28;20212;-45
2022/11/01 04:07:38;;;;;;;2.72;2.10;;;;;;;13.99;100.00;98470.22;4155050;28;20205;-45
2022/11/01 04:09:40;;;;;;;2.60;2.40;;;;;;;14.02;100.00;98486.19;4153918;28;20217;-46
2022/11/01 04:11:42;;;;;;;2.90;2.67;;;;;;;14.01;100.00;98501.03;4155972;28;20686;-46
2022/11/01 04:13:45;;;;;;;2.03;1.80;;;;;;;14.03;100.00;98507.09;4156845;28;20250;-46
2022/11/01 04:20:43;;;;;;;1.48;1.27;;;;;;;14.14;100.00;98511.53;4155769;28;20209;-45
2022/11/01 04:22:45;;;;;;;1.73;1.63;;;;;;;14.16;100.00;98487.31;4152824;28;20229;-45
2022/11/01 04:24:46;;;;;;;1.60;1.50;;;;;;;14.22;100.00;98497.25;4158859;28;20241;-46
2022/11/01 04:26:48;;;;;;;5.00;1.90;;;;;;;14.28;100.00;98500.81;4158490;28;20211;-45
2022/11/01 04:28:56;;;;;;;3.25;1.88;;;;;;;14.25;100.00;98504.13;4170026;28;20248;-46
2022/11/01 04:30:58;;;;;;;2.45;2.25;;;;;;;14.23;100.00;98515.41;4169089;28;20218;-46
2022/11/01 04:33:00;;;;;;;2.75;2.47;;;;;;;14.29;100.00;98511.56;4171884;28;21149;-46
2022/11/01 04:35:02;;;;;;;1.85;1.70;;;;;;;14.31;100.00;98508.56;4158302;28;20242;-46
2022/11/01 04:37:04;;;;;;;1.65;1.48;;;;;;;14.28;100.00;98512.69;4155012;28;20287;-46
2022/11/01 04:39:06;;;;;;;2.20;2.00;;;;;;;14.28;100.00;98507.16;4151659;28;20203;-46
2022/11/01 04:41:07;;;;;;;3.97;1.85;;;;;;;14.32;100.00;98519.28;4150352;28;20277;-47
2022/11/01 04:43:10;;;;;;;2.47;1.67;;;;;;;14.32;100.00;98522.06;4153013;28;20566;-46
2022/11/01 04:45:12;;;;;;;2.05;1.92;;;;;;;14.31;100.00;98523.13;4168876;28;20211;-46
2022/11/01 04:47:13;;;;;;;4.45;2.10;;;;;;;14.32;100.00;98524.81;4158534;28;20589;-47
2022/11/01 04:49:15;;;;;;;2.10;1.90;;;;;;;14.32;100.00;98523.97;4154255;28;20308;-46
2022/11/01 04:51:17;;;;;;;2.05;1.67;;;;;;;14.38;100.00;98531.94;4155776;28;20620;-45
2022/11/01 04:53:18;;;;;;;2.20;2.00;;;;;;;14.34;100.00;98533.59;4159240;28;20206;-46
2022/11/01 04:55:20;;;;;;;2.17;1.92;;;;;;;14.38;100.00;98534.69;4157753;28;20218;-45
2022/11/01 04:57:21;;;;;;;1.98;1.60;;;;;;;14.40;100.00;98526.16;4153377;28;20231;-45
2022/11/01 04:59:23;;;;;;;2.10;2.00;;;;;;;14.39;100.00;98533.63;4152353;28;20224;-46
2022/11/01 05:01:25;;;;;;;4.35;2.33;;;;;;;14.41;100.00;98534.16;4150773;28;20237;-46
2022/11/01 05:03:26;;;;;;;1.90;1.77;;;;;;;14.44;100.00;98539.09;4157685;28;20677;-46
2022/11/01 05:05:28;;;;;;;21.20;2.67;;;;;;;14.47;100.00;98552.34;4151071;28;20212;-46
2022/11/01 05:07:30;;;;;;;4.97;2.67;;;;;;;14.45;100.00;98543.53;4169013;28;20232;-46
2022/11/01 05:09:32;;;;;;;7.88;2.75;;;;;;;14.49;100.00;98538.31;4156495;28;20213;-45
2022/11/01 05:11:33;;;;;;;2.33;1.73;;;;;;;14.50;100.00;98543.50;4153663;28;20756;-46
2022/11/01 05:13:35;;;;;;;2.72;2.53;;;;;;;14.47;100.00;98538.56;4152952;28;20243;-47
2022/11/01 05:15:37;;;;;;;2.78;1.80;;;;;;;14.44;100.00;98544.63;4150811;28;20304;-45
2022/11/01 05:17:48;;;;;;;3.22;2.47;;;;;;;14.49;100.00;98541.88;4153104;28;20314;-45
2022/11/01 05:19:50;;;;;;;2.83;2.40;;;;;;;14.49;100.00;98547.38;4149742;28;20818;-46
2022/11/01 05:21:51;;;;;;;2.03;1.92;;;;;;;14.47;100.00;98555.09;4154773;28;20228;-46
2022/11/01 05:23:53;;;;;;;2.17;1.98;;;;;;;14.49;100.00;98563.91;4149964;28;20304;-46
2022/11/01 05:25:55;;;;;;;2.38;1.98;;;;;;;14.52;100.00;98566.13;4166446;28;20211;-46
2022/11/01 05:27:59;;;;;;;3.03;2.35;;;;;;;14.50;100.00;98560.03;4167649;28;20292;-45
2022/11/01 05:30:01;;;;;;;2.10;1.83;;;;;;;14.50;100.00;98565.56;4154298;28;20742;-46
2022/11/01 05:32:03;;;;;;;4.13;2.38;;;;;;;14.52;100.00;98565.28;4150255;28;20292;-46
2022/11/01 05:34:05;;;;;;;2.17;1.98;;;;;;;14.50;100.00;98573.00;4155730;28;20197;-45
2022/11/01 05:36:06;;;;;;;2.92;2.15;;;;;;;14.53;100.00;98570.53;4153693;28;20211;-46
2022/11/01 05:38:08;;;;;;;2.97;2.30;;;;;;;14.57;100.00;98576.31;4150430;28;20226;-46
2022/11/01 05:40:10;;;;;;;3.05;2.25;;;;;;;14.53;100.00;98581.53;4148863;28;20201;-46
2022/11/01 05:42:12;;;;;;;2.10;1.98;;;;;;;14.55;100.00;98584.84;4155959;28;20728;-46
2022/11/01 05:44:13;;;;;;;2.85;2.53;;;;;;;14.58;100.00;98589.78;4151831;28;20209;-46
2022/11/01 05:46:15;;;;;;;3.17;2.88;;;;;;;14.57;100.00;98582.63;4150988;28;20201;-46
2022/11/01 05:48:17;;;;;;;3.00;2.13;;;;;;;14.60;100.00;98587.59;4156957;28;20269;-51
2022/11/01 05:50:18;;;;;;;10.48;3.38;;;;;;;14.59;100.00;98591.47;4154375;28;20678;-46
2022/11/01 05:52:20;;;;;;;3.17;1.90;;;;;;;14.60;100.00;98587.59;4150508;28;20261;-47
2022/11/01 05:54:22;;;;;;;2.08;1.85;;;;;;;14.63;100.00;98586.22;4154429;28;20209;-46
2022/11/01 05:56:23;;;;;;;2.28;2.08;;;;;;;14.63;100.00;98587.03;4168382;28;20204;-46
2022/11/01 05:58:26;;;;;;;3.70;1.83;;;;;;;14.64;100.00;98585.94;4140388;28;20233;-46
2022/11/01 06:00:32;;;;;;;1.80;1.48;;;;;;;14.69;100.00;98591.47;4157789;28;20766;-47
2022/11/01 06:02:34;;;;;;;2.60;2.40;;;;;;;14.69;100.00;98596.97;4136367;28;20621;-46
2022/11/01 06:04:36;;;;;;;2.80;1.98;;;;;;;14.70;100.00;98597.81;4157034;28;20209;-46
2022/11/01 06:06:37;;;;;;;2.05;1.65;;;;;;;14.69;100.00;98607.19;4154833;28;20696;-45
2022/11/01 06:08:39;;;;;;;2.90;2.63;;;;;;;14.71;100.00;98605.78;4168625;28;20220;-46
2022/11/01 06:10:40;;;;;;;2.67;2.47;;;;;;;14.67;100.00;98615.72;4156807;28;20227;-46
2022/11/01 06:12:42;;;;;;;2.67;2.25;;;;;;;14.67;100.00;98612.13;4164738;28;20256;-46
2022/11/01 06:14:44;;;;;;;2.25;2.00;;;;;;;14.66;100.00;98619.56;4168799;28;20203;-46
2022/11/01 06:16:45;;;;;;;1.77;1.55;;;;;;;14.63;100.00;98620.09;4138678;28;20631;-46
2022/11/01 06:18:47;;;;;;;2.22;2.03;;;;;;;14.65;100.00;98626.19;4157495;28;20654;-46
2022/11/01 06:20:49;;;;;;;3.15;2.15;;;;;;;14.68;100.00;98627.53;4151623;28;20215;-47
2022/11/01 06:22:50;;;;;;;3.30;2.20;;;;;;;14.67;100.00;98626.72;4136817;28;20209;-46
2022/11/01 06:24:52;;;;;;;2.60;2.40;;;;;;;14.72;100.00;98631.41;4154022;28;20251;-46
2022/11/01 06:26:54;;;;;;;2.45;1.80;;;;;;;14.66;100.00;98629.75;4140453;28;20267;-46
2022/11/01 06:28:59;;;;;;;3.17;2.13;;;;;;;14.69;100.00;98635.53;4153308;28;20651;-46
2022/11/01 06:31:02;;;;;;;2.60;2.38;;;;;;;14.70;100.00;98630.88;4170085;28;20656;-46
2022/11/01 06:33:05;;;;;;;2.47;1.77;;;;;;;14.67;100.00;98637.75;4165494;28;20281;-46
2022/11/01 06:35:07;;;;;;;3.20;1.77;;;;;;;14.71;100.00;98640.78;4155742;28;20215;-46
2022/11/01 06:37:09;;;;;;;2.30;2.10;;;;;;;14.68;100.00;98633.88;4155112;28;20300;-46
2022/11/01 06:39:11;;;;;;;1.70;1.60;;;;;;;14.66;100.00;98641.59;4149947;28;20230;-47
2022/11/01 06:41:12;;;;;;;2.25;1.90;;;;;;;14.64;100.00;98638.28;4153114;28;20221;-47
2022/11/01 06:43:14;;;;;;;2.55;1.98;;;;;;;14.69;100.00;98641.03;4149297;28;20258;-47
2022/11/01 06:45:16;;;;;;;2.17;1.98;;;;;;;14.67;100.00;98648.75;4167044;28;21579;-46
2022/11/01 06:47:18;;;;;;;1.75;1.65;;;;;;;14.63;100.00;98647.63;4155373;28;20212;-45
2022/11/01 06:49:20;;;;;;;3.03;1.98;;;;;;;14.71;100.00;98647.09;4155156;28;20208;-46
2022/11/01 06:51:22;;;;;;;2.70;1.90;;;;;;;14.77;100.00;98653.47;4168798;28;20326;-46
2022/11/01 06:53:24;;;;;;;2.45;2.25;;;;;;;14.75;100.00;98666.66;4146175;28;20638;-46
2022/11/01 06:55:27;;;;;;;2.25;1.77;;;;;;;14.74;100.00;98663.09;4153605;28;20539;-46
2022/11/01 06:57:28;;;;;;;2.40;2.20;;;;;;;14.69;100.00;98674.09;4152576;28;20201;-46
2022/11/01 06:59:30;;;;;;;2.58;2.38;;;;;;;14.76;100.00;98666.41;4167924;28;20197;-46
2022/11/01 07:01:32;;;;;;;1.75;1.65;;;;;;;14.74;100.00;98676.88;4167682;28;20238;-46
2022/11/01 07:03:34;;;;;;;1.95;1.75;;;;;;;14.76;100.00;98680.16;4166621;28;20242;-46
2022/11/01 07:05:37;;;;;;;1.60;1.50;;;;;;;14.75;100.00;98683.19;4167378;28;20338;-46
2022/11/01 07:07:40;;;;;;;1.85;1.75;;;;;;;14.80;100.00;98678.53;4151445;28;20212;-46
2022/11/01 07:09:42;;;;;;;15.43;2.00;;;;;;;14.79;100.00;98690.66;4165374;28;20219;-46
2022/11/01 07:11:44;;;;;;;1.83;1.73;;;;;;;14.82;100.00;98690.09;4148302;28;20224;-46
2022/11/01 07:13:47;;;;;;;1.77;1.65;;;;;;;14.81;100.00;98693.13;4147618;28;20227;-46
2022/11/01 07:15:48;;;;;;;1.83;1.73;;;;;;;14.78;100.00;98693.69;4132220;28;20213;-46
2022/11/01 07:17:54;;;;;;;2.22;1.88;;;;;;;14.85;100.00;98697.84;4147248;28;20225;-46
2022/11/01 07:19:56;;;;;;;1.73;1.55;;;;;;;14.87;100.00;98692.88;4156964;28;20201;-46
2022/11/01 07:21:57;;;;;;;2.28;1.48;;;;;;;14.87;100.00;98695.63;4154342;28;20324;-45
2022/11/01 07:23:59;;;;;;;4.60;1.77;;;;;;;14.89;100.00;98696.19;4166797;28;20206;-46
2022/11/01 07:26:01;;;;;;;2.08;1.48;;;;;;;14.90;100.00;98697.81;4156017;28;20251;-46
2022/11/01 07:28:03;;;;;;;1.52;1.42;;;;;;;14.89;100.00;98698.94;4155973;28;20204;-46
2022/11/01 07:30:06;;;;;;;2.67;1.75;;;;;;;14.92;100.00;98701.16;4151665;28;20240;-46
2022/11/01 07:32:07;;;;;;;1.15;1.05;;;;;;;14.88;100.00;98705.53;4153179;28;20649;-46
2022/11/01 07:34:09;;;;;;;2.33;2.13;;;;;;;14.87;100.00;98717.69;4165974;28;20201;-46
2022/11/01 07:36:11;;;;;;;1.77;1.67;;;;;;;14.85;100.00;98717.13;4164140;28;20207;-46
2022/11/01 07:38:13;;;;;;;1.92;1.38;;;;;;;14.89;100.00;98722.91;4153404;28;20307;-46
2022/11/01 07:40:15;;;;;;;3.95;1.92;;;;;;;14.85;100.00;98719.88;4153154;28;20264;-46
2022/11/01 07:42:17;;;;;;;4.95;1.30;;;;;;;14.82;100.00;98728.69;4146637;28;20749;-46
2022/11/01 07:44:19;;;;;;;1.23;1.13;;;;;;;14.85;100.00;98727.31;4167036;28;20295;-46
2022/11/01 07:46:21;;;;;;;0.88;0.88;;;;;;;14.76;100.00;98735.28;4155278;28;20211;-46
2022/11/01 07:48:22;;;;;;;1.60;1.00;;;;;;;14.79;100.00;98736.66;4155734;28;20769;-47
2022/11/01 07:50:24;;;;;;;1.95;1.10;;;;;;;14.74;100.00;98737.47;4156424;28;20220;-46
2022/11/01 07:52:26;;;;;;;4.22;1.13;;;;;;;14.72;100.00;98745.19;4151462;28;20229;-46
2022/11/01 07:54:27;;;;;;;1.38;1.27;;;;;;;14.76;100.00;98751.81;4153477;28;20841;-46
2022/11/01 07:56:29;;;;;;;1.30;1.20;;;;;;;14.71;100.00;98749.03;4168363;28;20240;-46
2022/11/01 07:58:32;;;;;;;1.13;1.13;;;;;;;14.68;100.00;98752.34;4168165;28;20219;-46
2022/11/01 08:00:34;;;;;;;1.13;1.02;;;;;;;14.72;100.00;98749.88;4148909;28;20207;-49
2022/11/01 08:02:36;;;;;;;1.20;1.10;;;;;;;14.68;100.00;98755.09;4166906;28;20219;-46
2022/11/01 08:04:37;;;;;;;0.98;0.98;;;;;;;14.71;100.00;98771.06;4167515;28;20279;-46
2022/11/01 08:06:39;;;;;;;1.55;1.42;;;;;;;14.55;100.00;98799.66;4150401;28;20691;-46
2022/11/01 08:08:41;;;;;;;1.30;1.20;;;;;;;14.31;100.00;98803.13;4155008;28;20331;-46
2022/11/01 08:10:43;;;;;;;1.50;0.75;;;;;;;13.89;100.00;98797.56;4142445;28;20211;-47
2022/11/01 08:12:44;;;;;;;1.55;0.88;;;;;;;13.82;100.00;98815.41;4155102;28;20235;-47
2022/11/01 08:14:49;;;;;;;0.93;0.93;;;;;;;13.74;100.00;98819.47;4168229;28;20212;-46
2022/11/01 08:16:54;;;;;;;1.33;0.98;;;;;;;13.59;100.00;98819.34;4158671;28;20204;-47
2022/11/01 08:18:56;;;;;;;0.57;0.57;;;;;;;13.41;100.00;98817.00;4169948;28;20792;-47
2022/11/01 08:20:58;;;;;;;0.70;0.70;;;;;;;13.18;100.00;98814.53;4157919;28;20213;-46
2022/11/01 08:23:00;;;;;;;0.63;0.60;;;;;;;13.26;100.00;98822.34;4158376;28;20205;-46
2022/11/01 08:25:03;;;;;;;3.55;1.02;;;;;;;13.24;100.00;98823.69;4156854;28;20312;-47
2022/11/01 08:27:04;;;;;;;1.30;1.13;;;;;;;13.29;100.00;98830.06;4154691;28;20694;-47
2022/11/01 08:29:06;;;;;;;0.90;0.90;;;;;;;13.33;100.00;98825.72;4155082;28;20288;-46
2022/11/01 08:31:09;;;;;;;1.35;1.25;;;;;;;13.32;100.00;98835.06;4169855;28;20211;-47
2022/11/01 08:33:10;;;;;;;2.28;0.90;;;;;;;13.38;100.00;98834.00;4170389;28;20650;-48
2022/11/01 08:35:12;;;;;;;0.90;0.90;;;;;;;13.41;100.00;98841.72;4149308;28;20203;-47
2022/11/01 08:37:14;;;;;;;2.88;0.80;;;;;;;13.40;100.00;98840.06;4157124;28;20287;-46
2022/11/01 08:39:16;;;;;;;1.85;0.90;;;;;;;13.44;100.00;98841.19;4155510;28;20221;-48
2022/11/01 08:41:18;;;;;;;0.93;0.80;;;;;;;13.56;100.00;98843.81;4170613;28;20755;-46
2022/11/01 08:43:19;;;;;;;1.15;0.90;;;;;;;13.66;100.00;98844.72;4141333;28;20218;-46
2022/11/01 08:45:21;;;;;;;1.00;1.00;;;;;;;13.77;100.00;98857.44;4156186;28;20215;-47
2022/11/01 08:47:23;;;;;;;1.20;1.13;;;;;;;13.90;100.00;98853.44;4159037;28;20205;-46
2022/11/01 08:49:25;;;;;;;1.20;0.95;;;;;;;14.20;100.00;98859.19;4158222;28;20215;-46
2022/11/01 08:51:27;;;;;;;1.33;1.10;;;;;;;14.10;100.00;98857.16;4156084;28;20315;-47
2022/11/01 08:53:28;;;;;;;1.10;1.00;;;;;;;14.13;100.00;98856.66;4159111;28;20208;-47
2022/11/01 08:55:30;;;;;;;1.17;0.77;;;;;;;14.58;100.00;98861.66;4134754;28;20293;-47
2022/11/01 08:57:38;;;;;;;2.72;1.10;;;;;;;14.82;100.00;98860.94;4170157;28;20272;-47
2022/11/01 08:59:39;;;;;;;0.77;0.77;;;;;;;14.88;99.37;98865.38;4158019;28;20270;-46
2022/11/01 09:01:41;;;;;;;3.30;1.15;;;;;;;14.76;95.49;98862.00;4158318;28;20224;-46
2022/11/01 09:03:43;;;;;;;1.30;1.20;;;;;;;14.86;94.81;98864.81;4170147;28;20210;-47
2022/11/01 09:05:45;;;;;;;0.73;0.68;;;;;;;15.12;95.97;98865.75;4156598;28;20275;-46
2022/11/01 09:07:47;;;;;;;1.27;1.17;;;;;;;15.50;94.70;98868.91;4168644;28;20252;-47
2022/11/01 09:09:49;;;;;;;0.52;0.50;;;;;;;15.59;90.81;98870.03;4154904;28;20213;-47
2022/11/01 09:11:51;;;;;;;0.50;0.50;;;;;;;15.92;91.34;98865.91;4154436;28;20250;-47
2022/11/01 09:13:53;;;;;;;1.38;0.40;;;;;;;15.81;88.28;98875.28;4151783;28;20719;-48
2022/11/01 09:15:55;;;;;;;5.47;0.55;;;;;;;15.63;86.29;98876.66;4170369;28;20204;-47
2022/11/01 09:18:06;;;;;;;1.65;0.60;;;;;;;15.47;87.00;98880.50;4156552;28;20200;-47
2022/11/01 09:20:08;;;;;;;1.48;0.60;;;;;;;14.83;87.57;98884.63;4169650;28;20208;-46
2022/11/01 09:22:10;;;;;;;0.75;0.60;;;;;;;15.19;88.39;98889.22;4154421;28;20311;-47
2022/11/01 09:24:12;;;;;;;0.90;0.90;;;;;;;15.32;88.74;98877.69;4154807;28;20211;-47
2022/11/01 09:26:14;;;;;;;1.00;0.40;;;;;;;15.16;84.25;98895.25;4151929;28;20209;-46
2022/11/01 09:28:16;;;;;;;0.85;0.55;;;;;;;14.85;85.19;98893.47;4165896;28;20247;-47
2022/11/01 09:30:18;;;;;;;1.08;0.70;;;;;;;15.25;84.92;98899.16;4149563;28;20219;-46
2022/11/01 09:32:20;;;;;;;1.85;0.70;;;;;;;15.51;83.40;98898.13;4154400;28;20225;-47
2022/11/01 09:34:22;;;;;;;0.50;0.50;;;;;;;15.56;81.82;98900.91;4138724;28;20213;-46
2022/11/01 09:36:24;;;;;;;0.55;0.40;;;;;;;15.86;82.42;98914.78;4155230;28;20207;-47
2022/11/01 09:38:25;;;;;;;0.63;0.63;;;;;;;15.94;82.05;98919.75;4152677;28;20308;-47
2022/11/01 09:40:31;;;;;;;0.70;0.65;;;;;;;15.67;79.80;98921.91;4154384;28;20245;-47
2022/11/01 09:42:38;;;;;;;1.02;0.80;;;;;;;15.68;77.88;98914.44;4167413;28;20234;-46
2022/11/01 09:44:43;;;;;;;0.43;0.43;;;;;;;15.65;79.46;98921.38;4157812;28;20303;-46
2022/11/01 09:46:51;;;;;;;4.10;0.77;;;;;;;15.87;80.15;98933.00;4168409;28;20605;-46